sensor_id;sensor_type;location;lat;lon;timestamp;P1;durP1;ratioP1;P2;durP2;ratioP2
22289;SDS011;11313;50.116;8.424;2023-10-08T00:00:03;5.30;;;3.13;;
22289;SDS011;11313;50.116;8.424;2023-10-08T00:02:49;5.18;;;3.53;;
22289;SDS011;11313;50.116;8.424;2023-10-08T00:05:15;4.03;;;2.88;;
22289;SDS011;11313;50.116;8.424;2023-10-08T00:07:41;5.18;;;3.08;;
22289;SDS011;11313;50.116;8.424;2023-10-08T00:10:08;3.67;;;2.50;;
22289;SDS011;11313;50.116;8.424;2023-10-08T00:12:34;3.83;;;2.70;;
22289;SDS011;11313;50.116;8.424;2023-10-08T00:14:59;4.22;;;3.00;;
22289;SDS011;11313;50.116;8.424;2023-10-08T00:17:25;4.22;;;2.75;;
22289;SDS011;11313;50.116;8.424;2023-10-08T00:19:51;4.15;;;2.80;;
22289;SDS011;11313;50.116;8.424;2023-10-08T00:22:17;4.65;;;2.90;;
22289;SDS011;11313;50.116;8.424;2023-10-08T00:24:44;4.60;;;2.95;;
22289;SDS011;11313;50.116;8.424;2023-10-08T00:27:11;3.97;;;2.88;;
22289;SDS011;11313;50.116;8.424;2023-10-08T00:29:39;5.03;;;2.63;;
22289;SDS011;11313;50.116;8.424;2023-10-08T00:32:08;5.53;;;2.63;;
22289;SDS011;11313;50.116;8.424;2023-10-08T00:34:37;5.55;;;2.88;;
22289;SDS011;11313;50.116;8.424;2023-10-08T00:37:06;4.38;;;2.20;;
22289;SDS011;11313;50.116;8.424;2023-10-08T00:39:34;4.53;;;2.97;;
22289;SDS011;11313;50.116;8.424;2023-10-08T00:42:02;4.38;;;2.60;;
22289;SDS011;11313;50.116;8.424;2023-10-08T00:44:29;4.15;;;2.33;;
22289;SDS011;11313;50.116;8.424;2023-10-08T00:46:55;3.95;;;2.63;;
22289;SDS011;11313;50.116;8.424;2023-10-08T00:49:26;5.00;;;2.95;;
22289;SDS011;11313;50.116;8.424;2023-10-08T00:52:11;5.20;;;2.45;;
22289;SDS011;11313;50.116;8.424;2023-10-08T00:54:38;4.72;;;2.45;;
22289;SDS011;11313;50.116;8.424;2023-10-08T00:57:17;3.88;;;2.67;;
22289;SDS011;11313;50.116;8.424;2023-10-08T00:59:46;2.97;;;2.20;;
22289;SDS011;11313;50.116;8.424;2023-10-08T01:02:18;6.15;;;2.55;;
22289;SDS011;11313;50.116;8.424;2023-10-08T01:04:51;4.57;;;2.70;;
22289;SDS011;11313;50.116;8.424;2023-10-08T01:07:19;4.68;;;2.42;;
22289;SDS011;11313;50.116;8.424;2023-10-08T01:09:45;4.93;;;2.42;;
22289;SDS011;11313;50.116;8.424;2023-10-08T01:12:25;5.60;;;2.60;;
22289;SDS011;11313;50.116;8.424;2023-10-08T01:14:59;3.83;;;2.60;;
22289;SDS011;11313;50.116;8.424;2023-10-08T01:17:43;6.53;;;2.45;;
22289;SDS011;11313;50.116;8.424;2023-10-08T01:20:16;4.18;;;2.50;;
22289;SDS011;11313;50.116;8.424;2023-10-08T01:23:09;4.85;;;2.30;;
22289;SDS011;11313;50.116;8.424;2023-10-08T01:28:06;6.70;;;2.90;;
22289;SDS011;11313;50.116;8.424;2023-10-08T01:30:43;4.75;;;2.70;;
22289;SDS011;11313;50.116;8.424;2023-10-08T01:33:13;6.93;;;2.67;;
22289;SDS011;11313;50.116;8.424;2023-10-08T01:35:41;3.60;;;2.28;;
22289;SDS011;11313;50.116;8.424;2023-10-08T01:38:07;3.97;;;2.55;;
22289;SDS011;11313;50.116;8.424;2023-10-08T01:40:38;4.93;;;2.55;;
22289;SDS011;11313;50.116;8.424;2023-10-08T01:43:04;5.43;;;2.83;;
22289;SDS011;11313;50.116;8.424;2023-10-08T01:45:30;4.25;;;2.58;;
22289;SDS011;11313;50.116;8.424;2023-10-08T01:47:57;5.03;;;2.58;;
22289;SDS011;11313;50.116;8.424;2023-10-08T01:50:23;4.07;;;2.30;;
22289;SDS011;11313;50.116;8.424;2023-10-08T01:52:54;5.93;;;2.70;;
22289;SDS011;11313;50.116;8.424;2023-10-08T01:55:20;4.28;;;2.65;;
22289;SDS011;11313;50.116;8.424;2023-10-08T01:57:47;4.05;;;2.58;;
22289;SDS011;11313;50.116;8.424;2023-10-08T02:00:14;6.07;;;2.60;;
22289;SDS011;11313;50.116;8.424;2023-10-08T02:02:44;5.22;;;2.60;;
22289;SDS011;11313;50.116;8.424;2023-10-08T02:05:15;4.22;;;2.38;;
22289;SDS011;11313;50.116;8.424;2023-10-08T02:07:44;4.03;;;2.45;;
22289;SDS011;11313;50.116;8.424;2023-10-08T02:10:10;4.15;;;2.28;;
22289;SDS011;11313;50.116;8.424;2023-10-08T02:12:39;3.92;;;2.30;;
22289;SDS011;11313;50.116;8.424;2023-10-08T02:15:06;4.57;;;2.50;;
22289;SDS011;11313;50.116;8.424;2023-10-08T02:17:32;4.88;;;2.50;;
22289;SDS011;11313;50.116;8.424;2023-10-08T02:19:58;5.13;;;2.65;;
22289;SDS011;11313;50.116;8.424;2023-10-08T02:22:24;3.65;;;2.40;;
22289;SDS011;11313;50.116;8.424;2023-10-08T02:24:49;3.67;;;2.60;;
22289;SDS011;11313;50.116;8.424;2023-10-08T02:27:15;4.50;;;2.58;;
22289;SDS011;11313;50.116;8.424;2023-10-08T02:29:41;3.53;;;2.30;;
22289;SDS011;11313;50.116;8.424;2023-10-08T02:32:07;3.42;;;2.40;;
22289;SDS011;11313;50.116;8.424;2023-10-08T02:34:33;4.13;;;2.40;;
22289;SDS011;11313;50.116;8.424;2023-10-08T02:37:00;5.35;;;2.60;;
22289;SDS011;11313;50.116;8.424;2023-10-08T02:39:28;4.55;;;2.60;;
22289;SDS011;11313;50.116;8.424;2023-10-08T02:41:56;5.55;;;2.50;;
22289;SDS011;11313;50.116;8.424;2023-10-08T02:44:24;3.92;;;2.75;;
22289;SDS011;11313;50.116;8.424;2023-10-08T02:46:50;5.80;;;2.47;;
22289;SDS011;11313;50.116;8.424;2023-10-08T02:49:17;5.20;;;2.35;;
22289;SDS011;11313;50.116;8.424;2023-10-08T02:51:48;4.28;;;2.75;;
22289;SDS011;11313;50.116;8.424;2023-10-08T02:54:16;8.02;;;2.70;;
22289;SDS011;11313;50.116;8.424;2023-10-08T02:56:52;4.32;;;2.50;;
22289;SDS011;11313;50.116;8.424;2023-10-08T02:59:23;4.93;;;2.30;;
22289;SDS011;11313;50.116;8.424;2023-10-08T03:01:49;4.03;;;2.42;;
22289;SDS011;11313;50.116;8.424;2023-10-08T03:04:20;4.15;;;2.40;;
22289;SDS011;11313;50.116;8.424;2023-10-08T03:06:47;6.68;;;2.40;;
22289;SDS011;11313;50.116;8.424;2023-10-08T03:09:15;3.60;;;2.10;;
22289;SDS011;11313;50.116;8.424;2023-10-08T03:11:46;3.95;;;2.47;;
22289;SDS011;11313;50.116;8.424;2023-10-08T03:14:13;3.75;;;2.15;;
22289;SDS011;11313;50.116;8.424;2023-10-08T03:16:42;4.35;;;2.40;;
22289;SDS011;11313;50.116;8.424;2023-10-08T03:19:13;3.47;;;2.25;;
22289;SDS011;11313;50.116;8.424;2023-10-08T03:21:42;4.35;;;2.20;;
22289;SDS011;11313;50.116;8.424;2023-10-08T03:24:13;3.33;;;2.22;;
22289;SDS011;11313;50.116;8.424;2023-10-08T03:26:55;3.35;;;2.15;;
22289;SDS011;11313;50.116;8.424;2023-10-08T03:29:30;3.03;;;2.20;;
22289;SDS011;11313;50.116;8.424;2023-10-08T03:31:56;4.53;;;2.47;;
22289;SDS011;11313;50.116;8.424;2023-10-08T03:34:22;3.88;;;2.22;;
22289;SDS011;11313;50.116;8.424;2023-10-08T03:36:52;4.18;;;2.35;;
22289;SDS011;11313;50.116;8.424;2023-10-08T03:39:24;3.58;;;2.20;;
22289;SDS011;11313;50.116;8.424;2023-10-08T03:42:08;3.10;;;2.40;;
22289;SDS011;11313;50.116;8.424;2023-10-08T03:44:37;3.80;;;2.58;;
22289;SDS011;11313;50.116;8.424;2023-10-08T03:47:02;2.58;;;2.10;;
22289;SDS011;11313;50.116;8.424;2023-10-08T03:49:35;2.63;;;2.00;;
22289;SDS011;11313;50.116;8.424;2023-10-08T03:52:09;3.60;;;2.45;;
22289;SDS011;11313;50.116;8.424;2023-10-08T03:54:35;4.57;;;2.45;;
22289;SDS011;11313;50.116;8.424;2023-10-08T03:57:01;3.38;;;2.25;;
22289;SDS011;11313;50.116;8.424;2023-10-08T03:59:38;3.88;;;2.40;;
22289;SDS011;11313;50.116;8.424;2023-10-08T04:02:05;3.15;;;2.10;;
22289;SDS011;11313;50.116;8.424;2023-10-08T04:04:48;3.13;;;2.20;;
22289;SDS011;11313;50.116;8.424;2023-10-08T04:07:21;4.90;;;2.38;;
22289;SDS011;11313;50.116;8.424;2023-10-08T04:09:50;2.58;;;1.98;;
22289;SDS011;11313;50.116;8.424;2023-10-08T04:12:24;3.70;;;2.25;;
22289;SDS011;11313;50.116;8.424;2023-10-08T04:14:52;4.03;;;2.40;;
22289;SDS011;11313;50.116;8.424;2023-10-08T04:17:20;3.83;;;2.00;;
22289;SDS011;11313;50.116;8.424;2023-10-08T04:19:47;3.33;;;2.10;;
22289;SDS011;11313;50.116;8.424;2023-10-08T04:22:13;2.90;;;2.00;;
22289;SDS011;11313;50.116;8.424;2023-10-08T04:24:41;3.35;;;2.15;;
22289;SDS011;11313;50.116;8.424;2023-10-08T04:27:08;5.18;;;2.20;;
22289;SDS011;11313;50.116;8.424;2023-10-08T04:29:34;2.75;;;1.98;;
22289;SDS011;11313;50.116;8.424;2023-10-08T04:32:02;3.25;;;2.17;;
22289;SDS011;11313;50.116;8.424;2023-10-08T04:34:37;2.95;;;2.10;;
22289;SDS011;11313;50.116;8.424;2023-10-08T04:37:03;2.95;;;2.00;;
22289;SDS011;11313;50.116;8.424;2023-10-08T04:39:36;2.97;;;2.10;;
22289;SDS011;11313;50.116;8.424;2023-10-08T04:42:04;2.80;;;2.13;;
22289;SDS011;11313;50.116;8.424;2023-10-08T04:44:38;2.85;;;2.10;;
22289;SDS011;11313;50.116;8.424;2023-10-08T04:47:04;4.07;;;2.10;;
22289;SDS011;11313;50.116;8.424;2023-10-08T04:49:31;3.42;;;2.05;;
22289;SDS011;11313;50.116;8.424;2023-10-08T04:52:02;3.10;;;2.10;;
22289;SDS011;11313;50.116;8.424;2023-10-08T04:54:33;2.85;;;2.33;;
22289;SDS011;11313;50.116;8.424;2023-10-08T04:57:05;3.17;;;2.15;;
22289;SDS011;11313;50.116;8.424;2023-10-08T04:59:32;2.58;;;2.05;;
22289;SDS011;11313;50.116;8.424;2023-10-08T05:02:05;2.63;;;1.88;;
22289;SDS011;11313;50.116;8.424;2023-10-08T05:04:54;5.78;;;2.38;;
22289;SDS011;11313;50.116;8.424;2023-10-08T05:07:46;3.10;;;2.10;;
22289;SDS011;11313;50.116;8.424;2023-10-08T05:10:13;2.75;;;2.10;;
22289;SDS011;11313;50.116;8.424;2023-10-08T05:12:49;2.60;;;2.00;;
22289;SDS011;11313;50.116;8.424;2023-10-08T05:15:30;3.15;;;2.20;;
22289;SDS011;11313;50.116;8.424;2023-10-08T05:18:02;3.20;;;2.30;;
22289;SDS011;11313;50.116;8.424;2023-10-08T05:20:37;2.67;;;2.05;;
22289;SDS011;11313;50.116;8.424;2023-10-08T05:23:16;2.50;;;2.10;;
22289;SDS011;11313;50.116;8.424;2023-10-08T05:25:50;3.33;;;2.20;;
22289;SDS011;11313;50.116;8.424;2023-10-08T05:28:32;3.85;;;2.10;;
22289;SDS011;11313;50.116;8.424;2023-10-08T05:31:07;2.63;;;2.10;;
22289;SDS011;11313;50.116;8.424;2023-10-08T05:33:56;3.15;;;1.80;;
22289;SDS011;11313;50.116;8.424;2023-10-08T05:36:39;4.65;;;2.08;;
22289;SDS011;11313;50.116;8.424;2023-10-08T05:39:30;3.10;;;2.00;;
22289;SDS011;11313;50.116;8.424;2023-10-08T05:42:07;3.03;;;2.08;;
22289;SDS011;11313;50.116;8.424;2023-10-08T05:44:45;3.22;;;1.90;;
22289;SDS011;11313;50.116;8.424;2023-10-08T05:47:15;2.58;;;1.63;;
22289;SDS011;11313;50.116;8.424;2023-10-08T05:50:03;2.45;;;1.95;;
22289;SDS011;11313;50.116;8.424;2023-10-08T05:52:45;4.53;;;2.05;;
22289;SDS011;11313;50.116;8.424;2023-10-08T05:55:21;3.33;;;1.90;;
22289;SDS011;11313;50.116;8.424;2023-10-08T06:00:50;3.45;;;2.10;;
22289;SDS011;11313;50.116;8.424;2023-10-08T06:03:16;2.58;;;2.10;;
22289;SDS011;11313;50.116;8.424;2023-10-08T06:06:06;3.92;;;2.10;;
22289;SDS011;11313;50.116;8.424;2023-10-08T06:08:39;2.80;;;1.95;;
22289;SDS011;11313;50.116;8.424;2023-10-08T06:11:19;3.03;;;2.00;;
22289;SDS011;11313;50.116;8.424;2023-10-08T06:14:04;4.40;;;1.95;;
22289;SDS011;11313;50.116;8.424;2023-10-08T06:16:44;3.08;;;2.10;;
22289;SDS011;11313;50.116;8.424;2023-10-08T06:19:12;3.42;;;2.20;;
22289;SDS011;11313;50.116;8.424;2023-10-08T06:21:40;2.65;;;1.73;;
22289;SDS011;11313;50.116;8.424;2023-10-08T06:24:06;4.43;;;1.90;;
22289;SDS011;11313;50.116;8.424;2023-10-08T06:29:13;3.00;;;1.80;;
22289;SDS011;11313;50.116;8.424;2023-10-08T06:31:44;4.53;;;1.73;;
22289;SDS011;11313;50.116;8.424;2023-10-08T06:34:16;4.43;;;2.30;;
22289;SDS011;11313;50.116;8.424;2023-10-08T06:36:45;3.55;;;2.10;;
22289;SDS011;11313;50.116;8.424;2023-10-08T06:39:11;5.35;;;2.03;;
22289;SDS011;11313;50.116;8.424;2023-10-08T06:41:43;3.33;;;2.10;;
22289;SDS011;11313;50.116;8.424;2023-10-08T06:44:11;7.80;;;2.78;;
22289;SDS011;11313;50.116;8.424;2023-10-08T06:46:39;5.38;;;2.70;;
22289;SDS011;11313;50.116;8.424;2023-10-08T06:49:06;4.72;;;3.05;;
22289;SDS011;11313;50.116;8.424;2023-10-08T06:51:36;5.15;;;2.80;;
22289;SDS011;11313;50.116;8.424;2023-10-08T06:54:06;8.52;;;2.80;;
22289;SDS011;11313;50.116;8.424;2023-10-08T06:56:35;5.28;;;3.05;;
22289;SDS011;11313;50.116;8.424;2023-10-08T06:59:01;5.85;;;2.80;;
22289;SDS011;11313;50.116;8.424;2023-10-08T07:01:26;9.25;;;3.20;;
22289;SDS011;11313;50.116;8.424;2023-10-08T07:04:03;9.35;;;3.67;;
22289;SDS011;11313;50.116;8.424;2023-10-08T07:06:31;6.53;;;3.40;;
22289;SDS011;11313;50.116;8.424;2023-10-08T07:08:59;8.77;;;3.67;;
22289;SDS011;11313;50.116;8.424;2023-10-08T07:11:29;6.53;;;3.80;;
22289;SDS011;11313;50.116;8.424;2023-10-08T07:13:59;9.63;;;3.88;;
22289;SDS011;11313;50.116;8.424;2023-10-08T07:16:25;7.63;;;3.30;;
22289;SDS011;11313;50.116;8.424;2023-10-08T07:18:53;7.88;;;3.80;;
22289;SDS011;11313;50.116;8.424;2023-10-08T07:21:22;13.60;;;4.20;;
22289;SDS011;11313;50.116;8.424;2023-10-08T07:23:55;7.90;;;3.95;;
22289;SDS011;11313;50.116;8.424;2023-10-08T07:26:27;6.40;;;4.18;;
22289;SDS011;11313;50.116;8.424;2023-10-08T07:29:04;7.57;;;3.80;;
22289;SDS011;11313;50.116;8.424;2023-10-08T07:31:34;8.55;;;4.47;;
22289;SDS011;11313;50.116;8.424;2023-10-08T07:34:01;17.67;;;4.32;;
22289;SDS011;11313;50.116;8.424;2023-10-08T07:36:46;6.40;;;4.07;;
22289;SDS011;11313;50.116;8.424;2023-10-08T07:39:13;10.45;;;4.57;;
22289;SDS011;11313;50.116;8.424;2023-10-08T07:41:59;8.65;;;4.45;;
22289;SDS011;11313;50.116;8.424;2023-10-08T07:44:26;8.93;;;4.32;;
22289;SDS011;11313;50.116;8.424;2023-10-08T07:46:55;10.70;;;4.70;;
22289;SDS011;11313;50.116;8.424;2023-10-08T07:49:21;8.98;;;4.70;;
22289;SDS011;11313;50.116;8.424;2023-10-08T07:51:48;9.90;;;4.55;;
22289;SDS011;11313;50.116;8.424;2023-10-08T07:54:17;6.90;;;4.15;;
22289;SDS011;11313;50.116;8.424;2023-10-08T07:56:44;7.50;;;4.18;;
22289;SDS011;11313;50.116;8.424;2023-10-08T07:59:10;10.32;;;4.97;;
22289;SDS011;11313;50.116;8.424;2023-10-08T08:01:39;8.20;;;4.70;;
22289;SDS011;11313;50.116;8.424;2023-10-08T08:04:07;8.98;;;4.43;;
22289;SDS011;11313;50.116;8.424;2023-10-08T08:06:37;8.15;;;4.80;;
22289;SDS011;11313;50.116;8.424;2023-10-08T08:09:03;11.10;;;5.38;;
22289;SDS011;11313;50.116;8.424;2023-10-08T08:11:44;16.55;;;5.22;;
22289;SDS011;11313;50.116;8.424;2023-10-08T08:14:11;16.90;;;5.15;;
22289;SDS011;11313;50.116;8.424;2023-10-08T08:16:41;16.05;;;5.10;;
22289;SDS011;11313;50.116;8.424;2023-10-08T08:19:13;14.30;;;5.13;;
22289;SDS011;11313;50.116;8.424;2023-10-08T08:21:43;9.65;;;4.63;;
22289;SDS011;11313;50.116;8.424;2023-10-08T08:24:12;12.93;;;5.38;;
22289;SDS011;11313;50.116;8.424;2023-10-08T08:26:38;14.10;;;4.80;;
22289;SDS011;11313;50.116;8.424;2023-10-08T08:29:26;13.23;;;5.00;;
22289;SDS011;11313;50.116;8.424;2023-10-08T08:31:54;11.25;;;4.57;;
22289;SDS011;11313;50.116;8.424;2023-10-08T08:34:21;11.50;;;4.72;;
22289;SDS011;11313;50.116;8.424;2023-10-08T08:36:48;15.38;;;5.28;;
22289;SDS011;11313;50.116;8.424;2023-10-08T08:39:17;15.43;;;5.38;;
22289;SDS011;11313;50.116;8.424;2023-10-08T08:42:00;17.95;;;5.20;;
22289;SDS011;11313;50.116;8.424;2023-10-08T08:44:29;13.45;;;4.82;;
22289;SDS011;11313;50.116;8.424;2023-10-08T08:46:57;12.82;;;5.13;;
22289;SDS011;11313;50.116;8.424;2023-10-08T08:49:26;16.35;;;5.28;;
22289;SDS011;11313;50.116;8.424;2023-10-08T08:51:53;11.93;;;4.80;;
22289;SDS011;11313;50.116;8.424;2023-10-08T08:54:20;12.70;;;5.38;;
22289;SDS011;11313;50.116;8.424;2023-10-08T08:56:46;14.57;;;5.25;;
22289;SDS011;11313;50.116;8.424;2023-10-08T08:59:13;10.90;;;4.55;;
22289;SDS011;11313;50.116;8.424;2023-10-08T09:01:39;16.17;;;4.78;;
22289;SDS011;11313;50.116;8.424;2023-10-08T09:04:06;11.20;;;4.97;;
22289;SDS011;11313;50.116;8.424;2023-10-08T09:06:36;12.57;;;4.82;;
22289;SDS011;11313;50.116;8.424;2023-10-08T09:09:05;12.15;;;5.05;;
22289;SDS011;11313;50.116;8.424;2023-10-08T09:11:47;20.75;;;5.30;;
22289;SDS011;11313;50.116;8.424;2023-10-08T09:14:16;16.25;;;5.03;;
22289;SDS011;11313;50.116;8.424;2023-10-08T09:16:44;12.15;;;4.50;;
22289;SDS011;11313;50.116;8.424;2023-10-08T09:19:10;10.60;;;4.97;;
22289;SDS011;11313;50.116;8.424;2023-10-08T09:21:41;13.68;;;5.05;;
22289;SDS011;11313;50.116;8.424;2023-10-08T09:24:06;11.38;;;4.93;;
22289;SDS011;11313;50.116;8.424;2023-10-08T09:26:36;11.40;;;5.13;;
22289;SDS011;11313;50.116;8.424;2023-10-08T09:29:04;8.75;;;4.43;;
22289;SDS011;11313;50.116;8.424;2023-10-08T09:31:29;15.32;;;4.75;;
22289;SDS011;11313;50.116;8.424;2023-10-08T09:36:27;10.23;;;4.35;;
22289;SDS011;11313;50.116;8.424;2023-10-08T09:39:00;10.23;;;4.68;;
22289;SDS011;11313;50.116;8.424;2023-10-08T09:41:29;10.43;;;4.75;;
22289;SDS011;11313;50.116;8.424;2023-10-08T09:43:57;9.85;;;4.57;;
22289;SDS011;11313;50.116;8.424;2023-10-08T09:46:25;9.77;;;4.55;;
22289;SDS011;11313;50.116;8.424;2023-10-08T09:49:00;11.43;;;4.65;;
22289;SDS011;11313;50.116;8.424;2023-10-08T09:51:28;9.13;;;4.45;;
22289;SDS011;11313;50.116;8.424;2023-10-08T09:54:15;10.48;;;4.55;;
22289;SDS011;11313;50.116;8.424;2023-10-08T09:56:46;8.55;;;4.38;;
22289;SDS011;11313;50.116;8.424;2023-10-08T09:59:13;9.25;;;4.13;;
22289;SDS011;11313;50.116;8.424;2023-10-08T10:01:40;12.57;;;4.63;;
22289;SDS011;11313;50.116;8.424;2023-10-08T10:04:10;7.90;;;4.57;;
22289;SDS011;11313;50.116;8.424;2023-10-08T10:06:37;10.60;;;4.70;;
22289;SDS011;11313;50.116;8.424;2023-10-08T10:09:03;13.85;;;5.10;;
22289;SDS011;11313;50.116;8.424;2023-10-08T10:11:40;7.55;;;4.30;;
22289;SDS011;11313;50.116;8.424;2023-10-08T10:14:10;9.52;;;4.55;;
22289;SDS011;11313;50.116;8.424;2023-10-08T10:16:38;8.82;;;4.13;;
22289;SDS011;11313;50.116;8.424;2023-10-08T10:19:06;11.15;;;4.75;;
22289;SDS011;11313;50.116;8.424;2023-10-08T10:21:40;9.73;;;4.50;;
22289;SDS011;11313;50.116;8.424;2023-10-08T10:24:12;8.48;;;4.30;;
22289;SDS011;11313;50.116;8.424;2023-10-08T10:26:47;7.78;;;4.32;;
22289;SDS011;11313;50.116;8.424;2023-10-08T10:29:18;6.53;;;3.67;;
22289;SDS011;11313;50.116;8.424;2023-10-08T10:31:45;9.52;;;4.57;;
22289;SDS011;11313;50.116;8.424;2023-10-08T10:34:19;9.95;;;4.88;;
22289;SDS011;11313;50.116;8.424;2023-10-08T10:36:47;6.07;;;3.80;;
22289;SDS011;11313;50.116;8.424;2023-10-08T10:39:15;8.38;;;4.00;;
22289;SDS011;11313;50.116;8.424;2023-10-08T10:41:46;8.82;;;3.78;;
22289;SDS011;11313;50.116;8.424;2023-10-08T10:44:13;8.98;;;3.92;;
22289;SDS011;11313;50.116;8.424;2023-10-08T10:46:45;8.15;;;3.88;;
22289;SDS011;11313;50.116;8.424;2023-10-08T10:49:20;8.60;;;4.18;;
22289;SDS011;11313;50.116;8.424;2023-10-08T10:51:47;10.02;;;4.20;;
22289;SDS011;11313;50.116;8.424;2023-10-08T10:54:17;6.47;;;3.95;;
22289;SDS011;11313;50.116;8.424;2023-10-08T10:56:48;7.43;;;3.90;;
22289;SDS011;11313;50.116;8.424;2023-10-08T10:59:28;9.00;;;4.40;;
22289;SDS011;11313;50.116;8.424;2023-10-08T11:02:01;12.13;;;4.43;;
22289;SDS011;11313;50.116;8.424;2023-10-08T11:04:34;8.10;;;3.85;;
22289;SDS011;11313;50.116;8.424;2023-10-08T11:07:12;6.78;;;3.78;;
22289;SDS011;11313;50.116;8.424;2023-10-08T11:09:41;9.60;;;4.40;;
22289;SDS011;11313;50.116;8.424;2023-10-08T11:12:09;8.00;;;4.25;;
22289;SDS011;11313;50.116;8.424;2023-10-08T11:14:41;7.40;;;4.15;;
22289;SDS011;11313;50.116;8.424;2023-10-08T11:17:14;7.80;;;4.10;;
22289;SDS011;11313;50.116;8.424;2023-10-08T11:19:47;8.63;;;4.38;;
22289;SDS011;11313;50.116;8.424;2023-10-08T11:22:13;9.25;;;4.57;;
22289;SDS011;11313;50.116;8.424;2023-10-08T11:24:43;8.90;;;4.63;;
22289;SDS011;11313;50.116;8.424;2023-10-08T11:27:13;8.07;;;3.92;;
22289;SDS011;11313;50.116;8.424;2023-10-08T11:29:46;7.13;;;3.65;;
22289;SDS011;11313;50.116;8.424;2023-10-08T11:34:42;6.55;;;4.25;;
22289;SDS011;11313;50.116;8.424;2023-10-08T11:37:14;10.85;;;4.50;;
22289;SDS011;11313;50.116;8.424;2023-10-08T11:39:51;6.55;;;3.90;;
22289;SDS011;11313;50.116;8.424;2023-10-08T11:42:18;8.05;;;4.57;;
22289;SDS011;11313;50.116;8.424;2023-10-08T11:44:53;6.78;;;3.95;;
22289;SDS011;11313;50.116;8.424;2023-10-08T11:47:19;11.90;;;4.85;;
22289;SDS011;11313;50.116;8.424;2023-10-08T11:49:47;8.73;;;4.32;;
22289;SDS011;11313;50.116;8.424;2023-10-08T11:52:19;10.02;;;4.53;;
22289;SDS011;11313;50.116;8.424;2023-10-08T11:54:46;10.25;;;4.22;;
22289;SDS011;11313;50.116;8.424;2023-10-08T11:57:13;10.07;;;4.45;;
22289;SDS011;11313;50.116;8.424;2023-10-08T11:59:39;8.10;;;4.15;;
22289;SDS011;11313;50.116;8.424;2023-10-08T12:02:06;9.70;;;4.57;;
22289;SDS011;11313;50.116;8.424;2023-10-08T12:04:32;9.27;;;4.50;;
22289;SDS011;11313;50.116;8.424;2023-10-08T12:06:57;8.60;;;4.50;;
22289;SDS011;11313;50.116;8.424;2023-10-08T12:09:27;11.82;;;4.80;;
22289;SDS011;11313;50.116;8.424;2023-10-08T12:11:53;9.38;;;4.65;;
22289;SDS011;11313;50.116;8.424;2023-10-08T12:14:19;12.18;;;4.78;;
22289;SDS011;11313;50.116;8.424;2023-10-08T12:16:44;12.00;;;4.60;;
22289;SDS011;11313;50.116;8.424;2023-10-08T12:19:10;11.43;;;4.72;;
22289;SDS011;11313;50.116;8.424;2023-10-08T12:21:42;8.65;;;4.72;;
22289;SDS011;11313;50.116;8.424;2023-10-08T12:24:11;11.82;;;4.90;;
22289;SDS011;11313;50.116;8.424;2023-10-08T12:26:37;11.02;;;5.10;;
22289;SDS011;11313;50.116;8.424;2023-10-08T12:29:10;13.50;;;5.13;;
22289;SDS011;11313;50.116;8.424;2023-10-08T12:31:44;9.60;;;4.90;;
22289;SDS011;11313;50.116;8.424;2023-10-08T12:34:12;8.10;;;4.30;;
22289;SDS011;11313;50.116;8.424;2023-10-08T12:36:38;8.98;;;4.72;;
22289;SDS011;11313;50.116;8.424;2023-10-08T12:39:04;10.55;;;4.90;;
22289;SDS011;11313;50.116;8.424;2023-10-08T12:41:34;13.15;;;4.70;;
22289;SDS011;11313;50.116;8.424;2023-10-08T12:44:03;11.98;;;4.50;;
22289;SDS011;11313;50.116;8.424;2023-10-08T12:46:32;16.45;;;4.85;;
22289;SDS011;11313;50.116;8.424;2023-10-08T12:48:58;13.80;;;4.60;;
22289;SDS011;11313;50.116;8.424;2023-10-08T12:51:26;14.82;;;5.00;;
22289;SDS011;11313;50.116;8.424;2023-10-08T12:56:29;13.63;;;4.60;;
22289;SDS011;11313;50.116;8.424;2023-10-08T12:59:00;11.80;;;5.10;;
22289;SDS011;11313;50.116;8.424;2023-10-08T13:01:29;11.98;;;4.88;;
22289;SDS011;11313;50.116;8.424;2023-10-08T13:03:55;10.40;;;4.78;;
22289;SDS011;11313;50.116;8.424;2023-10-08T13:06:32;15.27;;;4.38;;
22289;SDS011;11313;50.116;8.424;2023-10-08T13:08:58;13.65;;;4.63;;
22289;SDS011;11313;50.116;8.424;2023-10-08T13:11:24;11.90;;;4.75;;
22289;SDS011;11313;50.116;8.424;2023-10-08T13:16:24;11.88;;;4.88;;
22289;SDS011;11313;50.116;8.424;2023-10-08T13:18:51;10.05;;;4.72;;
22289;SDS011;11313;50.116;8.424;2023-10-08T13:21:17;11.43;;;5.05;;
22289;SDS011;11313;50.116;8.424;2023-10-08T13:23:49;12.00;;;4.65;;
22289;SDS011;11313;50.116;8.424;2023-10-08T13:26:18;9.85;;;4.70;;
22289;SDS011;11313;50.116;8.424;2023-10-08T13:28:47;8.75;;;4.72;;
22289;SDS011;11313;50.116;8.424;2023-10-08T13:31:13;9.60;;;4.68;;
22289;SDS011;11313;50.116;8.424;2023-10-08T13:33:41;9.07;;;4.65;;
22289;SDS011;11313;50.116;8.424;2023-10-08T13:36:09;10.13;;;4.63;;
22289;SDS011;11313;50.116;8.424;2023-10-08T13:38:36;12.80;;;4.50;;
22289;SDS011;11313;50.116;8.424;2023-10-08T13:41:03;10.18;;;4.72;;
22289;SDS011;11313;50.116;8.424;2023-10-08T13:43:31;9.88;;;4.43;;
22289;SDS011;11313;50.116;8.424;2023-10-08T13:46:04;7.47;;;4.13;;
22289;SDS011;11313;50.116;8.424;2023-10-08T13:48:32;11.60;;;4.78;;
22289;SDS011;11313;50.116;8.424;2023-10-08T13:51:02;10.50;;;4.43;;
22289;SDS011;11313;50.116;8.424;2023-10-08T13:53:29;9.35;;;4.90;;
22289;SDS011;11313;50.116;8.424;2023-10-08T13:56:01;9.80;;;4.65;;
22289;SDS011;11313;50.116;8.424;2023-10-08T13:58:29;9.25;;;4.28;;
22289;SDS011;11313;50.116;8.424;2023-10-08T14:01:00;9.00;;;4.50;;
22289;SDS011;11313;50.116;8.424;2023-10-08T14:03:28;9.13;;;4.55;;
22289;SDS011;11313;50.116;8.424;2023-10-08T14:05:58;9.00;;;3.97;;
22289;SDS011;11313;50.116;8.424;2023-10-08T14:10:54;8.00;;;4.18;;
22289;SDS011;11313;50.116;8.424;2023-10-08T14:13:25;10.32;;;4.47;;
22289;SDS011;11313;50.116;8.424;2023-10-08T14:15:59;8.85;;;4.43;;
22289;SDS011;11313;50.116;8.424;2023-10-08T14:18:41;9.13;;;4.53;;
22289;SDS011;11313;50.116;8.424;2023-10-08T14:21:21;8.88;;;4.80;;
22289;SDS011;11313;50.116;8.424;2023-10-08T14:24:05;10.02;;;4.22;;
22289;SDS011;11313;50.116;8.424;2023-10-08T14:26:46;8.82;;;5.03;;
22289;SDS011;11313;50.116;8.424;2023-10-08T14:29:28;12.55;;;4.47;;
22289;SDS011;11313;50.116;8.424;2023-10-08T14:32:19;7.32;;;4.20;;
22289;SDS011;11313;50.116;8.424;2023-10-08T14:34:51;8.15;;;4.20;;
22289;SDS011;11313;50.116;8.424;2023-10-08T14:37:20;8.02;;;4.43;;
22289;SDS011;11313;50.116;8.424;2023-10-08T14:40:10;8.00;;;4.20;;
22289;SDS011;11313;50.116;8.424;2023-10-08T14:43:13;9.70;;;4.43;;
22289;SDS011;11313;50.116;8.424;2023-10-08T14:45:51;8.25;;;4.10;;
22289;SDS011;11313;50.116;8.424;2023-10-08T14:48:43;8.10;;;4.55;;
22289;SDS011;11313;50.116;8.424;2023-10-08T14:51:36;10.73;;;4.60;;
22289;SDS011;11313;50.116;8.424;2023-10-08T14:54:24;8.32;;;4.75;;
22289;SDS011;11313;50.116;8.424;2023-10-08T15:00:34;9.43;;;4.68;;
22289;SDS011;11313;50.116;8.424;2023-10-08T15:07:26;8.63;;;4.20;;
22289;SDS011;11313;50.116;8.424;2023-10-08T15:13:10;10.32;;;4.03;;
22289;SDS011;11313;50.116;8.424;2023-10-08T15:15:36;11.65;;;4.47;;
22289;SDS011;11313;50.116;8.424;2023-10-08T15:18:05;10.10;;;4.60;;
22289;SDS011;11313;50.116;8.424;2023-10-08T15:20:31;10.05;;;4.45;;
22289;SDS011;11313;50.116;8.424;2023-10-08T15:22:58;10.95;;;4.40;;
22289;SDS011;11313;50.116;8.424;2023-10-08T15:25:24;9.02;;;4.50;;
22289;SDS011;11313;50.116;8.424;2023-10-08T15:27:50;11.75;;;4.10;;
22289;SDS011;11313;50.116;8.424;2023-10-08T15:30:16;9.57;;;4.53;;
22289;SDS011;11313;50.116;8.424;2023-10-08T15:32:47;13.32;;;4.32;;
22289;SDS011;11313;50.116;8.424;2023-10-08T15:35:14;14.45;;;4.20;;